Terminal Aerodrome Forecast
Issued by NWS Boston, MA

Home | Current Version | Previous Version | Text Only | Print | Product List | Glossary On
Versions: 1 2 3 4 5 6 7 8 9 10 11 12 13 14 15 16 17 18 19 20 21 22 23 24 25 26 27 28 29 30 31 32 33 34 35 36 37 38 39 40 41 42
000
FTUS41 KBOX 280807 AAA
TAFPVD
TAF AMD
KPVD 280807Z 2808/2906 18006KT 5SM BR OVC006
     FM281000 17006KT 3SM TSRA BR BKN008 OVC025CB
     FM281130 18007KT 5SM -SHRA BR OVC006
     FM281500 20013G20KT P6SM BKN025
     FM282200 23012KT P6SM SCT035
     FM290000 24011KT P6SM SCT250=

USA.gov is the U.S. government's official web portal to all federal, state and local government web resources and services.